Time;durP1;ratioP1;P1;durP2;ratioP2;P2;SDS_P1;SDS_P2;PMS_P1;PMS_P2;Temp;Humidity;BMP_temperature;BMP_pressure;BME280_temperature;BME280_humidity;BME280_pressure;Samples;Min_cycle;Max_cycle;Signal;HPM_P1;HPM_P2
2023/12/06 00:01:48;;;;;;;40.10;25.80;;;2.50;99.90;;;;;;5058806;28;20029;-37
2023/12/06 00:04:14;;;;;;;35.35;23.55;;;2.50;99.90;;;;;;5061060;28;20646;-36
2023/12/06 00:06:39;;;;;;;33.22;21.85;;;2.50;99.90;;;;;;5061154;28;20029;-35
2023/12/06 00:09:05;;;;;;;34.33;23.05;;;2.50;99.90;;;;;;5060134;28;20032;-36
2023/12/06 00:11:31;;;;;;;37.72;24.08;;;2.50;99.90;;;;;;5060627;28;20031;-38
2023/12/06 00:13:56;;;;;;;39.85;25.35;;;2.50;99.90;;;;;;5060209;28;20036;-35
2023/12/06 00:16:22;;;;;;;37.95;23.80;;;2.50;99.90;;;;;;5060073;28;20025;-36
2023/12/06 00:18:49;;;;;;;34.95;22.42;;;2.50;99.90;;;;;;5061095;28;20031;-35
2023/12/06 00:21:14;;;;;;;30.77;20.88;;;2.50;99.90;;;;;;5060754;28;20024;-35
2023/12/06 00:23:40;;;;;;;31.45;20.40;;;2.50;99.90;;;;;;5058990;28;20137;-35
2023/12/06 00:26:06;;;;;;;35.00;22.40;;;2.60;99.90;;;;;;5060565;28;20012;-35
2023/12/06 00:28:31;;;;;;;33.38;22.67;;;2.50;99.90;;;;;;5060038;28;20400;-36
2023/12/06 00:30:57;;;;;;;33.90;23.30;;;2.60;99.90;;;;;;5059769;28;20040;-40
2023/12/06 00:33:22;;;;;;;36.88;24.17;;;2.60;99.90;;;;;;5061232;28;20021;-37
2023/12/06 00:35:48;;;;;;;34.08;22.70;;;2.60;99.90;;;;;;5060600;28;20035;-37
2023/12/06 00:38:17;;;;;;;35.05;24.52;;;2.60;99.90;;;;;;5063895;28;20122;-37
2023/12/06 00:40:44;;;;;;;31.10;21.35;;;2.60;99.90;;;;;;5063389;28;20620;-37
2023/12/06 00:43:10;;;;;;;37.13;23.45;;;2.60;99.90;;;;;;5063106;28;20813;-37
2023/12/06 00:45:35;;;;;;;34.83;23.80;;;2.60;99.90;;;;;;5063826;28;20852;-37
2023/12/06 00:48:01;;;;;;;35.78;23.60;;;2.60;99.90;;;;;;5063611;28;20111;-36
2023/12/06 00:50:27;;;;;;;32.53;22.25;;;2.60;99.90;;;;;;5063294;28;20055;-37
2023/12/06 00:52:52;;;;;;;31.83;21.20;;;2.60;99.90;;;;;;5063339;28;20025;-36
2023/12/06 00:55:18;;;;;;;29.02;19.52;;;2.70;99.90;;;;;;5064119;28;20225;-37
2023/12/06 00:57:43;;;;;;;28.80;19.40;;;2.70;99.90;;;;;;5063216;28;20028;-36
2023/12/06 01:00:10;;;;;;;26.77;19.23;;;2.70;99.90;;;;;;5062665;28;20043;-36
2023/12/06 01:02:37;;;;;;;28.55;19.10;;;2.80;99.90;;;;;;5062640;28;20113;-37
2023/12/06 01:05:04;;;;;;;28.17;19.15;;;2.80;99.90;;;;;;5062044;28;20029;-37
2023/12/06 01:07:33;;;;;;;25.55;16.90;;;2.80;99.90;;;;;;5063524;28;20024;-36
2023/12/06 01:09:58;;;;;;;28.30;18.90;;;2.90;99.90;;;;;;5063432;28;20384;-37
2023/12/06 01:12:24;;;;;;;29.80;21.80;;;2.90;99.90;;;;;;5062902;28;20024;-37
2023/12/06 01:14:49;;;;;;;30.05;19.42;;;2.90;99.90;;;;;;5064238;28;20071;-37
2023/12/06 01:17:15;;;;;;;35.05;22.33;;;2.80;99.90;;;;;;5064034;28;20052;-36
2023/12/06 01:19:41;;;;;;;34.95;22.38;;;2.80;99.90;;;;;;5063413;28;20045;-37
2023/12/06 01:22:06;;;;;;;31.00;20.35;;;2.80;99.90;;;;;;5062943;28;20020;-36
2023/12/06 01:24:32;;;;;;;33.03;21.40;;;2.90;99.90;;;;;;5062453;28;20028;-38
2023/12/06 01:26:57;;;;;;;28.40;19.20;;;2.90;99.90;;;;;;5063797;28;20016;-36
2023/12/06 01:29:23;;;;;;;28.63;19.38;;;2.90;99.90;;;;;;5064518;28;20041;-36
2023/12/06 01:31:48;;;;;;;25.48;17.85;;;3.00;99.90;;;;;;5062760;28;20037;-36
2023/12/06 01:34:14;;;;;;;24.20;16.40;;;3.00;99.90;;;;;;5063226;28;20472;-36
2023/12/06 01:36:40;;;;;;;27.98;18.90;;;3.00;99.90;;;;;;5062738;28;20535;-36
2023/12/06 01:39:06;;;;;;;33.17;20.65;;;3.10;99.90;;;;;;5062181;28;20032;-36
2023/12/06 01:41:34;;;;;;;32.17;20.80;;;3.00;99.90;;;;;;5063645;28;20029;-36
2023/12/06 01:43:59;;;;;;;28.15;18.80;;;3.10;99.90;;;;;;5062406;28;20036;-36
2023/12/06 01:46:25;;;;;;;28.05;18.13;;;3.10;99.90;;;;;;5062234;28;20055;-36
2023/12/06 01:48:52;;;;;;;28.30;18.92;;;3.10;99.90;;;;;;5061984;28;20059;-36
2023/12/06 01:51:19;;;;;;;27.95;18.98;;;3.10;99.90;;;;;;5062938;28;20175;-36
2023/12/06 01:53:45;;;;;;;27.20;18.50;;;3.10;99.90;;;;;;5061447;28;20047;-36
2023/12/06 01:56:11;;;;;;;25.65;17.20;;;3.10;99.90;;;;;;5062517;28;20025;-36
2023/12/06 01:58:37;;;;;;;22.45;15.60;;;3.20;99.90;;;;;;5062866;28;20025;-36
2023/12/06 02:01:04;;;;;;;40.42;24.38;;;3.20;99.90;;;;;;5061800;28;20027;-36
2023/12/06 02:03:32;;;;;;;39.83;24.50;;;3.20;99.90;;;;;;5063193;28;20083;-36
2023/12/06 02:06:04;;;;;;;34.60;22.52;;;3.20;99.90;;;;;;5062554;28;20031;-36
2023/12/06 02:08:33;;;;;;;31.23;20.27;;;3.20;99.90;;;;;;5061749;28;20145;-37
2023/12/06 02:10:59;;;;;;;31.83;20.33;;;3.20;99.90;;;;;;5062126;28;20438;-37
2023/12/06 02:13:25;;;;;;;33.83;21.38;;;3.20;99.90;;;;;;5062636;28;20558;-36
2023/12/06 02:15:51;;;;;;;31.90;20.65;;;3.20;99.90;;;;;;5061511;28;20037;-37
2023/12/06 02:18:17;;;;;;;30.88;19.92;;;3.30;99.90;;;;;;5062670;28;20020;-36
2023/12/06 02:20:44;;;;;;;32.97;21.02;;;3.30;99.90;;;;;;5062826;28;20032;-36
2023/12/06 02:23:11;;;;;;;32.03;19.75;;;3.30;99.90;;;;;;5062487;28;20012;-38
2023/12/06 02:25:36;;;;;;;30.08;19.52;;;3.30;99.90;;;;;;5051636;28;20020;-38
2023/12/06 02:28:02;;;;;;;29.90;20.25;;;3.30;99.90;;;;;;5062067;28;20469;-38
2023/12/06 02:30:27;;;;;;;31.33;20.13;;;3.30;99.90;;;;;;5063479;28;20510;-37
2023/12/06 02:32:53;;;;;;;30.80;20.20;;;3.30;99.90;;;;;;5062493;28;20028;-37
2023/12/06 02:35:25;;;;;;;29.95;19.25;;;3.30;99.90;;;;;;5062785;28;20028;-35
2023/12/06 02:37:56;;;;;;;24.33;16.40;;;3.30;99.90;;;;;;5062215;28;20021;-36
2023/12/06 02:40:25;;;;;;;24.85;16.30;;;3.40;99.90;;;;;;5062652;28;20031;-36
2023/12/06 02:42:51;;;;;;;29.90;19.17;;;3.40;99.90;;;;;;5061769;28;20059;-37
2023/12/06 02:45:16;;;;;;;28.63;17.63;;;3.40;99.90;;;;;;5062012;28;20052;-36
2023/12/06 02:47:42;;;;;;;30.58;19.38;;;3.40;99.90;;;;;;5061524;28;20020;-36
2023/12/06 02:50:08;;;;;;;29.63;19.10;;;3.40;99.90;;;;;;5060057;28;20600;-37
2023/12/06 02:52:34;;;;;;;31.55;19.15;;;3.40;99.90;;;;;;5062420;28;20081;-36
2023/12/06 02:55:00;;;;;;;31.83;20.17;;;3.50;99.90;;;;;;5062061;28;20032;-36
2023/12/06 02:57:25;;;;;;;32.20;20.98;;;3.50;99.90;;;;;;5062330;28;20032;-36
2023/12/06 02:59:51;;;;;;;30.42;19.83;;;3.50;99.90;;;;;;5060516;28;20024;-36
2023/12/06 03:02:16;;;;;;;29.13;19.42;;;3.40;99.90;;;;;;5062222;28;20036;-37
2023/12/06 03:04:42;;;;;;;27.90;18.60;;;3.50;99.90;;;;;;5061022;28;20052;-36
2023/12/06 03:07:07;;;;;;;26.30;17.48;;;3.50;99.90;;;;;;5062156;28;20035;-36
2023/12/06 03:09:33;;;;;;;27.27;18.17;;;3.50;99.90;;;;;;5062294;28;20028;-36
2023/12/06 03:11:58;;;;;;;27.45;17.38;;;3.50;99.90;;;;;;5060868;28;20470;-35
2023/12/06 03:14:24;;;;;;;26.88;17.23;;;3.60;99.90;;;;;;5061270;28;20044;-36
2023/12/06 03:16:50;;;;;;;24.83;16.85;;;3.60;99.90;;;;;;5061119;28;20027;-36
2023/12/06 03:19:15;;;;;;;27.65;18.50;;;3.60;99.90;;;;;;5060851;28;20036;-36
2023/12/06 03:21:41;;;;;;;27.98;18.13;;;3.60;99.90;;;;;;5060269;28;20032;-36
2023/12/06 03:24:09;;;;;;;26.17;17.33;;;3.60;99.90;;;;;;5060502;28;20032;-35
2023/12/06 03:26:35;;;;;;;31.48;20.92;;;3.60;99.90;;;;;;5060687;28;20020;-36
2023/12/06 03:29:01;;;;;;;27.63;18.58;;;3.60;99.90;;;;;;5060838;28;20036;-36
2023/12/06 03:31:26;;;;;;;25.77;17.35;;;3.60;99.90;;;;;;5061923;28;20036;-38
2023/12/06 03:33:52;;;;;;;26.02;17.25;;;3.70;99.90;;;;;;5063252;28;20178;-36
2023/12/06 03:36:17;;;;;;;25.40;16.73;;;3.70;99.90;;;;;;5061640;28;20033;-36
2023/12/06 03:38:43;;;;;;;23.17;15.52;;;3.70;99.90;;;;;;5059834;28;20849;-37
2023/12/06 03:41:09;;;;;;;23.48;16.45;;;3.70;99.90;;;;;;5060532;28;20124;-36
2023/12/06 03:43:35;;;;;;;28.10;17.40;;;3.70;99.90;;;;;;5061424;28;20111;-36
2023/12/06 03:46:00;;;;;;;27.40;19.02;;;3.70;99.90;;;;;;5060181;28;20040;-35
2023/12/06 03:48:26;;;;;;;26.63;17.10;;;3.70;99.90;;;;;;5060776;28;20036;-37
2023/12/06 03:50:51;;;;;;;24.70;16.50;;;3.70;99.90;;;;;;5073687;28;20025;-37
2023/12/06 03:53:17;;;;;;;26.08;17.95;;;3.70;99.90;;;;;;5060438;28;20542;-36
2023/12/06 03:55:43;;;;;;;23.63;15.63;;;3.80;99.90;;;;;;5060583;28;20020;-37
2023/12/06 03:58:09;;;;;;;23.63;15.07;;;3.80;99.90;;;;;;5060780;28;20040;-37
2023/12/06 04:00:34;;;;;;;29.40;19.25;;;3.80;99.90;;;;;;5060863;28;20039;-35
2023/12/06 04:03:00;;;;;;;24.08;16.30;;;3.80;99.90;;;;;;5060018;28;20029;-35
2023/12/06 04:05:26;;;;;;;27.23;18.73;;;3.80;99.90;;;;;;5061220;28;20027;-36
2023/12/06 04:07:52;;;;;;;27.05;18.50;;;3.80;99.90;;;;;;5059643;28;20029;-37
2023/12/06 04:10:18;;;;;;;27.13;18.80;;;3.70;99.90;;;;;;5060880;28;20036;-36
2023/12/06 04:12:43;;;;;;;28.08;18.13;;;3.80;99.90;;;;;;5063953;28;20103;-36
2023/12/06 04:15:11;;;;;;;28.27;17.65;;;3.80;99.90;;;;;;5064110;28;20028;-37
2023/12/06 04:17:36;;;;;;;22.35;14.82;;;3.80;99.90;;;;;;5064862;28;20413;-37
2023/12/06 04:20:04;;;;;;;24.55;16.33;;;3.80;99.90;;;;;;5064810;28;20926;-37
2023/12/06 04:22:29;;;;;;;27.33;17.63;;;3.80;99.90;;;;;;5064335;28;20366;-37
2023/12/06 04:25:02;;;;;;;23.35;16.73;;;3.80;99.90;;;;;;5064182;28;20824;-36
2023/12/06 04:27:28;;;;;;;22.52;15.38;;;3.80;99.90;;;;;;5063950;28;20024;-36
2023/12/06 04:29:53;;;;;;;22.02;15.63;;;3.90;99.90;;;;;;5063525;28;20089;-37
2023/12/06 04:32:19;;;;;;;23.08;15.93;;;3.90;99.90;;;;;;5065068;28;20529;-37
2023/12/06 04:34:54;;;;;;;27.88;16.35;;;3.90;99.90;;;;;;5064018;28;20027;-36
2023/12/06 04:37:20;;;;;;;17.25;13.82;;;3.90;99.90;;;;;;5064678;28;20024;-36
2023/12/06 04:39:45;;;;;;;20.58;14.55;;;3.90;99.90;;;;;;5064647;28;20028;-36
2023/12/06 04:42:13;;;;;;;20.23;14.02;;;3.90;99.90;;;;;;5064196;28;20032;-36
2023/12/06 04:44:39;;;;;;;23.80;15.98;;;3.90;99.90;;;;;;5064539;28;20033;-36
2023/12/06 04:47:05;;;;;;;19.17;14.82;;;3.90;99.90;;;;;;5064416;28;20028;-36
2023/12/06 04:49:31;;;;;;;20.65;14.07;;;3.90;99.90;;;;;;5063474;28;20049;-36
2023/12/06 04:51:56;;;;;;;16.52;12.00;;;3.90;99.90;;;;;;5063830;28;20025;-36
2023/12/06 04:54:25;;;;;;;20.33;15.07;;;4.00;99.90;;;;;;5064696;28;20653;-37
2023/12/06 04:56:51;;;;;;;24.30;16.90;;;4.00;99.90;;;;;;5063437;28;20062;-37
2023/12/06 04:59:17;;;;;;;20.60;14.82;;;4.00;99.90;;;;;;5064255;28;20033;-37
2023/12/06 05:01:46;;;;;;;20.60;14.80;;;4.00;99.90;;;;;;5063726;28;20104;-37
2023/12/06 05:04:11;;;;;;;20.60;14.95;;;4.00;99.90;;;;;;5062968;28;20020;-36
2023/12/06 05:06:37;;;;;;;20.40;14.15;;;4.00;99.90;;;;;;5064130;28;20029;-37
2023/12/06 05:09:10;;;;;;;16.55;12.68;;;4.00;99.90;;;;;;5062863;28;20028;-37
2023/12/06 05:11:35;;;;;;;19.73;12.98;;;4.00;99.90;;;;;;5063521;28;20029;-36
2023/12/06 05:14:02;;;;;;;20.15;14.77;;;4.10;99.90;;;;;;5063077;28;20109;-37
2023/12/06 05:16:28;;;;;;;18.42;13.70;;;4.10;99.90;;;;;;5063586;28;20029;-36
2023/12/06 05:18:53;;;;;;;21.30;14.55;;;4.10;99.90;;;;;;5062473;28;20036;-35
2023/12/06 05:21:19;;;;;;;17.70;12.90;;;4.10;99.90;;;;;;5063472;28;20447;-36
2023/12/06 05:23:44;;;;;;;21.20;14.60;;;4.10;99.90;;;;;;5062663;28;20041;-36
2023/12/06 05:26:10;;;;;;;20.40;14.27;;;4.10;99.90;;;;;;5063410;28;20020;-36
2023/12/06 05:28:36;;;;;;;15.63;11.68;;;4.10;99.90;;;;;;5063326;28;20028;-36
2023/12/06 05:31:02;;;;;;;17.05;12.50;;;4.10;99.90;;;;;;5062406;28;20036;-36
2023/12/06 05:33:27;;;;;;;17.27;12.15;;;4.10;99.90;;;;;;5064168;28;20075;-37
2023/12/06 05:35:55;;;;;;;12.88;9.75;;;4.20;99.90;;;;;;5062961;28;20052;-36
2023/12/06 05:38:21;;;;;;;14.57;11.30;;;4.20;99.90;;;;;;5043943;28;20032;-36
2023/12/06 05:40:48;;;;;;;14.57;11.10;;;4.10;99.90;;;;;;5057002;28;20555;-36
2023/12/06 05:43:14;;;;;;;14.75;10.98;;;4.20;99.90;;;;;;5063591;28;20143;-36
2023/12/06 05:45:39;;;;;;;14.57;10.95;;;4.20;99.90;;;;;;5062707;28;20451;-36
2023/12/06 05:48:05;;;;;;;13.90;10.40;;;4.20;99.90;;;;;;5063139;28;20170;-36
2023/12/06 05:50:31;;;;;;;12.77;10.38;;;4.20;99.90;;;;;;5062312;28;20134;-37
2023/12/06 05:52:58;;;;;;;14.13;10.95;;;4.20;99.90;;;;;;5061697;28;20031;-37
2023/12/06 05:55:23;;;;;;;15.98;12.13;;;4.20;99.90;;;;;;5062811;28;20036;-38
2023/12/06 05:57:49;;;;;;;13.90;10.60;;;4.30;99.90;;;;;;5062863;28;20458;-38
2023/12/06 06:00:17;;;;;;;15.43;11.88;;;4.30;99.90;;;;;;5062524;28;20056;-37
2023/12/06 06:02:43;;;;;;;14.38;11.68;;;4.30;99.90;;;;;;5063112;28;20029;-37
2023/12/06 06:05:09;;;;;;;13.73;11.70;;;4.30;99.90;;;;;;5062256;28;20514;-38
2023/12/06 06:07:36;;;;;;;15.45;11.90;;;4.30;99.90;;;;;;5061536;28;20032;-38
2023/12/06 06:10:02;;;;;;;18.35;13.60;;;4.30;99.90;;;;;;5062851;28;20472;-37
2023/12/06 06:12:28;;;;;;;14.48;11.38;;;4.30;99.90;;;;;;5062706;28;20029;-38
2023/12/06 06:14:54;;;;;;;15.70;11.90;;;4.30;99.90;;;;;;5062142;28;20040;-36
2023/12/06 06:17:19;;;;;;;14.20;11.15;;;4.30;99.90;;;;;;5062468;28;20039;-38
2023/12/06 06:19:45;;;;;;;12.88;10.43;;;4.30;99.90;;;;;;5062530;28;20058;-37
2023/12/06 06:22:11;;;;;;;12.82;10.65;;;4.40;99.90;;;;;;5059284;28;20102;-36
2023/12/06 06:24:36;;;;;;;13.00;10.50;;;4.40;99.90;;;;;;5061484;28;20032;-37
2023/12/06 06:27:02;;;;;;;13.07;10.63;;;4.40;99.90;;;;;;5060238;28;20025;-38
2023/12/06 06:29:28;;;;;;;13.05;10.68;;;4.40;99.90;;;;;;5061249;28;20083;-38
2023/12/06 06:31:54;;;;;;;13.98;10.68;;;4.40;99.90;;;;;;5060674;28;20021;-37
2023/12/06 06:34:20;;;;;;;15.35;12.18;;;4.40;99.90;;;;;;5060531;28;20045;-37
2023/12/06 06:36:46;;;;;;;14.18;10.27;;;4.40;99.90;;;;;;5060636;28;20471;-37
2023/12/06 06:39:12;;;;;;;13.75;10.70;;;4.40;99.90;;;;;;5061417;28;20029;-37
2023/12/06 06:41:41;;;;;;;15.77;12.55;;;4.40;99.90;;;;;;5060621;28;20620;-41
2023/12/06 06:44:06;;;;;;;14.10;10.88;;;4.40;99.90;;;;;;5061448;28;20036;-49
2023/12/06 06:46:32;;;;;;;13.32;10.70;;;4.40;99.90;;;;;;5061350;28;20024;-38
2023/12/06 06:48:59;;;;;;;17.20;11.90;;;4.40;99.90;;;;;;5060207;28;20055;-37
2023/12/06 06:51:35;;;;;;;17.73;13.05;;;4.40;99.90;;;;;;5061545;28;20373;-37
2023/12/06 06:54:06;;;;;;;14.70;11.70;;;4.40;99.90;;;;;;5059376;28;20031;-35
2023/12/06 06:56:32;;;;;;;15.65;11.05;;;4.40;99.90;;;;;;5060637;28;20028;-36
2023/12/06 06:58:58;;;;;;;15.15;10.68;;;4.50;99.90;;;;;;5061094;28;20029;-36
2023/12/06 07:01:24;;;;;;;12.82;10.18;;;4.50;99.90;;;;;;5061349;28;20577;-36
2023/12/06 07:03:50;;;;;;;13.00;10.95;;;4.50;99.90;;;;;;5059541;28;20373;-36
2023/12/06 07:06:16;;;;;;;14.32;10.80;;;4.50;99.90;;;;;;5060701;28;20036;-36
2023/12/06 07:08:41;;;;;;;13.05;10.60;;;4.50;99.90;;;;;;5059840;28;20021;-36
2023/12/06 07:11:07;;;;;;;13.30;10.50;;;4.60;99.90;;;;;;5059694;28;20032;-36
2023/12/06 07:13:34;;;;;;;14.63;10.27;;;4.60;99.90;;;;;;5061059;28;20028;-36
2023/12/06 07:16:00;;;;;;;12.65;10.57;;;4.60;99.90;;;;;;5060331;28;20028;-36
2023/12/06 07:18:27;;;;;;;13.88;10.48;;;4.60;99.90;;;;;;5060686;28;20541;-36
2023/12/06 07:20:52;;;;;;;12.98;9.88;;;4.60;99.90;;;;;;5060598;28;20749;-36
2023/12/06 07:23:18;;;;;;;18.25;11.50;;;4.70;99.90;;;;;;5060532;28;20020;-36
2023/12/06 07:25:47;;;;;;;14.30;10.70;;;4.60;99.90;;;;;;5061196;28;20636;-35
2023/12/06 07:28:13;;;;;;;14.73;10.32;;;4.60;99.90;;;;;;5060609;28;20056;-37
2023/12/06 07:30:40;;;;;;;14.48;10.00;;;4.70;99.90;;;;;;5059917;28;20151;-35
2023/12/06 07:33:08;;;;;;;14.75;10.30;;;4.70;99.90;;;;;;5060721;28;20024;-36
2023/12/06 07:35:37;;;;;;;12.77;9.70;;;4.70;99.90;;;;;;5060773;28;20506;-36
2023/12/06 07:38:08;;;;;;;11.07;8.23;;;4.70;99.90;;;;;;5060269;28;20040;-37
2023/12/06 07:40:33;;;;;;;12.77;9.43;;;4.70;99.90;;;;;;5059750;28;20028;-36
2023/12/06 07:42:59;;;;;;;12.25;9.30;;;4.70;99.90;;;;;;5060612;28;20029;-37
2023/12/06 07:45:24;;;;;;;12.75;9.52;;;4.70;99.90;;;;;;5059931;28;20032;-36
2023/12/06 07:47:50;;;;;;;13.45;9.85;;;4.70;99.90;;;;;;5060621;28;20028;-37
2023/12/06 07:50:16;;;;;;;12.00;9.57;;;4.80;99.90;;;;;;5060113;28;20055;-36
2023/12/06 07:52:44;;;;;;;14.32;10.60;;;4.80;99.90;;;;;;5059681;28;20044;-37
2023/12/06 07:55:12;;;;;;;14.23;10.85;;;4.70;99.90;;;;;;5061220;28;20494;-36
2023/12/06 07:57:39;;;;;;;16.17;12.23;;;4.80;99.90;;;;;;5061485;28;20391;-37
2023/12/06 08:00:07;;;;;;;18.23;12.30;;;4.70;99.90;;;;;;5059283;28;20036;-38
2023/12/06 08:02:36;;;;;;;15.50;11.75;;;4.80;99.90;;;;;;5061005;28;20032;-37
2023/12/06 08:05:02;;;;;;;13.85;10.73;;;4.70;99.90;;;;;;5059941;28;20024;-37
2023/12/06 08:07:28;;;;;;;11.60;8.63;;;4.80;99.90;;;;;;5058929;28;20051;-37
2023/12/06 08:10:07;;;;;;;12.10;9.80;;;4.80;99.90;;;;;;5060319;28;20486;-37
2023/12/06 08:12:33;;;;;;;10.23;8.50;;;4.80;99.90;;;;;;5060449;28;20031;-36
2023/12/06 08:15:05;;;;;;;12.05;9.48;;;4.90;99.90;;;;;;5060008;28;20024;-36
2023/12/06 08:17:31;;;;;;;10.38;8.50;;;4.90;99.90;;;;;;5061530;28;20033;-37
2023/12/06 08:19:57;;;;;;;11.98;9.02;;;4.90;99.90;;;;;;5060080;28;20025;-37
2023/12/06 08:22:22;;;;;;;10.30;8.10;;;4.90;99.90;;;;;;5061022;28;20387;-37
2023/12/06 08:24:48;;;;;;;12.27;8.93;;;4.90;99.90;;;;;;5060472;28;20106;-36
2023/12/06 08:27:14;;;;;;;14.63;11.00;;;4.90;99.90;;;;;;5060619;28;20028;-37
2023/12/06 08:29:40;;;;;;;16.55;11.30;;;4.90;99.90;;;;;;5061442;28;20208;-39
2023/12/06 08:32:07;;;;;;;13.13;10.77;;;4.90;99.90;;;;;;5060633;28;20111;-36
2023/12/06 08:34:32;;;;;;;16.13;10.32;;;5.00;99.90;;;;;;5060742;28;20075;-37
2023/12/06 08:36:58;;;;;;;12.75;9.73;;;5.00;99.90;;;;;;5060140;28;20903;-36
2023/12/06 08:39:23;;;;;;;15.20;9.93;;;5.00;99.90;;;;;;5061261;28;20063;-37
2023/12/06 08:41:49;;;;;;;12.25;9.43;;;5.00;99.90;;;;;;5059366;28;20032;-36
2023/12/06 08:44:14;;;;;;;13.07;9.35;;;5.00;99.90;;;;;;5060074;28;20032;-35
2023/12/06 08:46:42;;;;;;;13.27;9.25;;;5.10;99.90;;;;;;5059706;28;20529;-36
2023/12/06 08:49:08;;;;;;;11.13;8.05;;;5.10;99.90;;;;;;5059124;28;20044;-37
2023/12/06 08:51:33;;;;;;;11.88;8.63;;;5.10;99.90;;;;;;5059686;28;20491;-37
2023/12/06 08:53:59;;;;;;;11.25;8.52;;;5.10;99.90;;;;;;5058984;28;20140;-37
2023/12/06 08:56:24;;;;;;;11.40;8.25;;;5.10;99.90;;;;;;5059725;28;20068;-37
2023/12/06 08:58:50;;;;;;;11.65;8.40;;;5.20;99.90;;;;;;5062523;28;20192;-35
2023/12/06 09:01:16;;;;;;;11.85;8.45;;;5.20;99.90;;;;;;5063485;28;20024;-37
2023/12/06 09:03:42;;;;;;;13.82;10.48;;;5.20;99.90;;;;;;5062813;28;20052;-36
2023/12/06 09:06:08;;;;;;;12.25;8.90;;;5.20;99.90;;;;;;5064004;28;20518;-39
2023/12/06 09:08:34;;;;;;;12.32;8.75;;;5.20;99.90;;;;;;5063411;28;20033;-44
2023/12/06 09:11:00;;;;;;;11.63;9.13;;;5.20;99.90;;;;;;5061229;28;20036;-36
2023/12/06 09:13:26;;;;;;;12.70;8.75;;;5.20;99.90;;;;;;5063350;28;20079;-37
2023/12/06 09:15:52;;;;;;;12.05;8.00;;;5.20;99.90;;;;;;5062561;28;20043;-37
2023/12/06 09:18:18;;;;;;;10.15;8.02;;;5.30;99.90;;;;;;5063715;28;20029;-38
2023/12/06 09:20:44;;;;;;;10.55;7.80;;;5.30;99.90;;;;;;5063012;28;20032;-35
2023/12/06 09:23:13;;;;;;;10.75;8.57;;;5.30;99.90;;;;;;5062899;28;20379;-35
2023/12/06 09:25:38;;;;;;;9.30;7.47;;;5.30;99.90;;;;;;5063071;28;20109;-35
2023/12/06 09:28:04;;;;;;;10.65;8.68;;;5.30;99.90;;;;;;5063347;28;20135;-35
2023/12/06 09:30:30;;;;;;;12.60;8.40;;;5.30;99.90;;;;;;5062414;28;20396;-38
2023/12/06 09:32:58;;;;;;;12.77;8.48;;;5.30;99.90;;;;;;5062546;28;20020;-37
2023/12/06 09:35:24;;;;;;;10.32;8.40;;;5.40;99.90;;;;;;5063776;28;20131;-37
2023/12/06 09:37:50;;;;;;;10.10;7.80;;;5.40;99.90;;;;;;5061275;28;20028;-37
2023/12/06 09:40:15;;;;;;;10.98;8.77;;;5.40;99.90;;;;;;5063428;28;20032;-38
2023/12/06 09:42:46;;;;;;;12.10;8.82;;;5.40;99.90;;;;;;5062830;28;20754;-37
2023/12/06 09:45:13;;;;;;;11.05;8.65;;;5.40;99.90;;;;;;5062403;28;20031;-37
2023/12/06 09:47:42;;;;;;;14.50;8.18;;;5.40;99.90;;;;;;5063390;28;20452;-36
2023/12/06 09:50:10;;;;;;;10.80;7.80;;;5.50;99.90;;;;;;5062154;28;20060;-38
2023/12/06 09:52:35;;;;;;;10.55;8.68;;;5.50;99.90;;;;;;5062183;28;20024;-36
2023/12/06 09:55:01;;;;;;;9.43;7.28;;;5.40;99.90;;;;;;5060723;28;20043;-35
2023/12/06 09:57:29;;;;;;;10.43;9.00;;;5.40;99.90;;;;;;5063201;28;20420;-36
2023/12/06 09:59:55;;;;;;;10.55;8.77;;;5.30;99.90;;;;;;5061404;28;20029;-37
2023/12/06 10:02:20;;;;;;;13.65;8.95;;;5.30;99.90;;;;;;5063098;28;20078;-37
2023/12/06 10:04:48;;;;;;;9.02;8.10;;;5.30;99.90;;;;;;5062058;28;20025;-37
2023/12/06 10:07:14;;;;;;;12.25;8.85;;;5.20;99.90;;;;;;5061865;28;20031;-37
2023/12/06 10:09:49;;;;;;;10.68;8.10;;;5.20;99.90;;;;;;5062388;28;20036;-37
2023/12/06 10:12:14;;;;;;;10.93;9.10;;;5.30;99.90;;;;;;5061764;28;20309;-36
2023/12/06 10:14:40;;;;;;;11.10;8.30;;;5.30;99.90;;;;;;5062259;28;20029;-38
2023/12/06 10:17:09;;;;;;;12.73;9.60;;;5.30;99.90;;;;;;5062466;28;20463;-37
2023/12/06 10:19:35;;;;;;;10.50;8.35;;;5.40;99.90;;;;;;5060235;28;20046;-37
2023/12/06 10:22:00;;;;;;;12.18;9.55;;;5.40;99.90;;;;;;5060050;28;20388;-36
2023/12/06 10:24:27;;;;;;;11.48;9.48;;;5.40;99.90;;;;;;5060571;28;20028;-35
2023/12/06 10:27:12;;;;;;;12.18;8.27;;;5.40;99.90;;;;;;5059552;28;20475;-36
2023/12/06 10:29:38;;;;;;;11.63;8.85;;;5.40;99.90;;;;;;5060571;28;20072;-36
2023/12/06 10:32:06;;;;;;;14.82;8.25;;;5.40;99.90;;;;;;5060783;28;20025;-37
2023/12/06 10:34:32;;;;;;;10.50;8.80;;;5.40;99.90;;;;;;5061096;28;20036;-36
2023/12/06 10:37:00;;;;;;;10.25;8.18;;;5.50;99.90;;;;;;5061716;28;20036;-35
2023/12/06 10:39:29;;;;;;;15.77;9.73;;;5.50;99.90;;;;;;5061617;28;20808;-35
2023/12/06 10:41:56;;;;;;;14.40;9.30;;;5.50;99.90;;;;;;5060571;28;20086;-43
2023/12/06 10:44:22;;;;;;;14.35;10.40;;;5.50;99.90;;;;;;5062367;28;20032;-37
2023/12/06 10:46:48;;;;;;;12.63;9.43;;;5.50;99.90;;;;;;5061523;28;21011;-36
2023/12/06 10:49:15;;;;;;;14.10;10.10;;;5.50;99.90;;;;;;5061028;28;20492;-36
2023/12/06 10:51:43;;;;;;;9.85;7.90;;;5.60;99.90;;;;;;5061738;28;20043;-37
2023/12/06 10:54:12;;;;;;;13.18;9.70;;;5.60;99.90;;;;;;5061180;28;20032;-37
2023/12/06 10:56:39;;;;;;;12.80;8.98;;;5.60;99.90;;;;;;5061000;28;20029;-46
2023/12/06 10:59:09;;;;;;;17.85;13.18;;;5.60;99.90;;;;;;5061440;28;20032;-36
2023/12/06 11:01:35;;;;;;;16.73;10.60;;;5.60;99.90;;;;;;5060402;28;20032;-37
2023/12/06 11:04:04;;;;;;;13.90;9.50;;;5.70;99.90;;;;;;5061014;28;20027;-36
2023/12/06 11:07:06;;;;;;;10.68;9.10;;;5.70;99.90;;;;;;5061156;28;20610;-35
2023/12/06 11:10:09;;;;;;;13.23;9.88;;;5.80;99.90;;;;;;5040715;28;20037;-35
2023/12/06 11:12:49;;;;;;;15.57;11.32;;;5.80;99.90;;;;;;5060873;28;20021;-36
2023/12/06 11:15:46;;;;;;;14.15;10.52;;;5.80;99.90;;;;;;5061565;28;20514;-35
2023/12/06 11:18:18;;;;;;;13.27;10.65;;;5.80;99.90;;;;;;5059665;28;20052;-36
2023/12/06 11:20:44;;;;;;;13.10;10.40;;;5.90;99.90;;;;;;5060908;28;20107;-37
2023/12/06 11:23:11;;;;;;;10.93;8.25;;;5.90;99.90;;;;;;5060424;28;20059;-38
2023/12/06 11:25:44;;;;;;;8.75;7.47;;;6.00;99.90;;;;;;5061913;28;20025;-36
2023/12/06 11:28:13;;;;;;;14.23;8.63;;;6.00;99.90;;;;;;5060394;28;20116;-41
2023/12/06 11:30:49;;;;;;;9.85;7.85;;;6.00;99.90;;;;;;5060667;28;20043;-38
2023/12/06 11:33:15;;;;;;;15.65;9.07;;;6.10;99.90;;;;;;5060643;28;20161;-37
2023/12/06 11:35:59;;;;;;;10.70;7.75;;;6.10;99.90;;;;;;5061098;28;20029;-37
2023/12/06 11:38:39;;;;;;;9.52;7.93;;;6.10;99.90;;;;;;5059918;28;20071;-37
2023/12/06 11:41:05;;;;;;;9.05;7.35;;;6.10;99.90;;;;;;5060671;28;20059;-38
2023/12/06 11:43:33;;;;;;;10.63;7.80;;;6.10;99.90;;;;;;5059918;28;20032;-37
2023/12/06 11:46:09;;;;;;;8.77;6.47;;;6.10;99.90;;;;;;5060161;28;20031;-37
2023/12/06 11:48:41;;;;;;;10.00;6.63;;;6.10;99.90;;;;;;5060562;28;20024;-36
2023/12/06 11:51:07;;;;;;;10.60;6.95;;;6.00;99.90;;;;;;5060111;28;20377;-39
2023/12/06 11:53:39;;;;;;;8.60;6.70;;;6.10;99.90;;;;;;5060513;28;20024;-35
2023/12/06 11:56:06;;;;;;;11.80;7.47;;;6.00;99.90;;;;;;5060778;28;20069;-39
2023/12/06 11:58:31;;;;;;;9.18;6.68;;;6.10;99.90;;;;;;5060261;28;20028;-38
2023/12/06 12:01:00;;;;;;;11.00;7.35;;;6.10;99.90;;;;;;5060378;28;20036;-37
2023/12/06 12:03:26;;;;;;;9.48;7.78;;;6.10;99.90;;;;;;5060587;28;20036;-36
2023/12/06 12:05:54;;;;;;;9.85;7.38;;;6.20;99.90;;;;;;5059670;28;20028;-36
2023/12/06 12:08:19;;;;;;;14.43;9.90;;;6.20;99.90;;;;;;5060284;28;20103;-36
2023/12/06 12:10:48;;;;;;;14.48;8.77;;;6.20;99.90;;;;;;5059894;28;20048;-36
2023/12/06 12:13:25;;;;;;;16.73;10.48;;;6.30;99.90;;;;;;5059521;28;20021;-37
2023/12/06 12:15:52;;;;;;;11.73;9.25;;;6.30;99.90;;;;;;5060242;28;20032;-41
2023/12/06 12:18:19;;;;;;;9.20;7.65;;;6.40;99.90;;;;;;5060389;28;20017;-37
2023/12/06 12:20:44;;;;;;;8.95;7.25;;;6.40;99.90;;;;;;5060094;28;20468;-37
2023/12/06 12:23:11;;;;;;;8.30;6.65;;;6.50;99.90;;;;;;5059504;28;20027;-36
2023/12/06 12:25:44;;;;;;;12.13;8.18;;;6.60;99.90;;;;;;5059823;28;20040;-36
2023/12/06 12:28:09;;;;;;;;;;;6.60;99.90;;;;;;5060536;28;20127;-36
2023/12/06 12:30:36;;;;;;;10.82;7.32;;;6.60;99.90;;;;;;5060554;28;19920;-37
2023/12/06 12:33:03;;;;;;;7.80;6.95;;;6.70;99.90;;;;;;5062884;28;20032;-36
2023/12/06 12:35:29;;;;;;;9.25;7.50;;;6.80;99.90;;;;;;5064914;28;20017;-36
2023/12/06 12:37:55;;;;;;;9.43;7.53;;;6.90;99.90;;;;;;5064654;28;20070;-37
2023/12/06 12:40:24;;;;;;;8.38;7.45;;;6.90;99.90;;;;;;5062749;28;20107;-37